sensor_id;sensor_type;location;lat;lon;timestamp;pressure;altitude;pressure_sealevel;temperature
81657;BMP280;71067;51.482;-0.580;2023-08-24T00:00:29;101525.59;;;20.30
81657;BMP280;71067;51.482;-0.580;2023-08-24T00:02:55;101521.78;;;20.26
81657;BMP280;71067;51.482;-0.580;2023-08-24T00:05:21;101523.75;;;20.24
81657;BMP280;71067;51.482;-0.580;2023-08-24T00:07:46;101519.38;;;20.18
81657;BMP280;71067;51.482;-0.580;2023-08-24T00:10:13;101502.19;;;20.09
81657;BMP280;71067;51.482;-0.580;2023-08-24T00:12:38;101493.50;;;20.02
81657;BMP280;71067;51.482;-0.580;2023-08-24T00:15:07;101503.00;;;20.02
81657;BMP280;71067;51.482;-0.580;2023-08-24T00:17:33;101513.13;;;20.06
81657;BMP280;71067;51.482;-0.580;2023-08-24T00:19:59;101518.19;;;20.01
81657;BMP280;71067;51.482;-0.580;2023-08-24T00:22:24;101517.38;;;19.93
81657;BMP280;71067;51.482;-0.580;2023-08-24T00:24:49;101517.16;;;19.95
81657;BMP280;71067;51.482;-0.580;2023-08-24T00:27:15;101523.25;;;19.89
81657;BMP280;71067;51.482;-0.580;2023-08-24T00:29:40;101515.78;;;19.86
81657;BMP280;71067;51.482;-0.580;2023-08-24T00:32:05;101513.97;;;19.86
81657;BMP280;71067;51.482;-0.580;2023-08-24T00:34:31;101507.09;;;19.85
81657;BMP280;71067;51.482;-0.580;2023-08-24T00:36:56;101501.63;;;19.87
81657;BMP280;71067;51.482;-0.580;2023-08-24T00:39:22;101498.22;;;19.86
81657;BMP280;71067;51.482;-0.580;2023-08-24T00:41:47;101495.16;;;19.76
81657;BMP280;71067;51.482;-0.580;2023-08-24T00:44:12;101496.22;;;19.75
81657;BMP280;71067;51.482;-0.580;2023-08-24T00:46:38;101491.34;;;19.72
81657;BMP280;71067;51.482;-0.580;2023-08-24T00:49:04;101491.34;;;19.72
81657;BMP280;71067;51.482;-0.580;2023-08-24T00:51:29;101500.25;;;19.71
81657;BMP280;71067;51.482;-0.580;2023-08-24T00:53:55;101497.81;;;19.63
81657;BMP280;71067;51.482;-0.580;2023-08-24T00:56:22;101485.72;;;19.62
81657;BMP280;71067;51.482;-0.580;2023-08-24T00:58:50;101482.66;;;19.65
81657;BMP280;71067;51.482;-0.580;2023-08-24T01:01:17;101487.28;;;19.63
81657;BMP280;71067;51.482;-0.580;2023-08-24T01:03:43;101488.34;;;19.62
81657;BMP280;71067;51.482;-0.580;2023-08-24T01:06:08;101495.00;;;19.58
81657;BMP280;71067;51.482;-0.580;2023-08-24T01:08:33;101500.25;;;19.65
81657;BMP280;71067;51.482;-0.580;2023-08-24T01:11:09;101495.00;;;19.65
81657;BMP280;71067;51.482;-0.580;2023-08-24T01:16:29;101496.03;;;19.57
81657;BMP280;71067;51.482;-0.580;2023-08-24T01:18:57;101490.16;;;19.55
81657;BMP280;71067;51.482;-0.580;2023-08-24T01:21:25;101495.00;;;19.58
81657;BMP280;71067;51.482;-0.580;2023-08-24T01:24:17;101482.88;;;19.51
81657;BMP280;71067;51.482;-0.580;2023-08-24T01:26:44;101476.63;;;19.52
81657;BMP280;71067;51.482;-0.580;2023-08-24T01:29:10;101476.41;;;19.53
81657;BMP280;71067;51.482;-0.580;2023-08-24T01:31:35;101459.44;;;19.49
81657;BMP280;71067;51.482;-0.580;2023-08-24T01:34:00;101461.03;;;19.50
81657;BMP280;71067;51.482;-0.580;2023-08-24T01:36:26;101458.22;;;19.45
81657;BMP280;71067;51.482;-0.580;2023-08-24T01:39:04;101451.16;;;19.39
81657;BMP280;71067;51.482;-0.580;2023-08-24T01:41:35;101440.47;;;19.34
81657;BMP280;71067;51.482;-0.580;2023-08-24T01:44:03;101445.31;;;19.44
81657;BMP280;71067;51.482;-0.580;2023-08-24T01:46:29;101446.53;;;19.41
81657;BMP280;71067;51.482;-0.580;2023-08-24T01:48:56;101440.84;;;19.38
81657;BMP280;71067;51.482;-0.580;2023-08-24T01:51:23;101445.72;;;19.41
81657;BMP280;71067;51.482;-0.580;2023-08-24T01:53:49;101425.31;;;19.36
81657;BMP280;71067;51.482;-0.580;2023-08-24T01:56:16;101423.69;;;19.35
81657;BMP280;71067;51.482;-0.580;2023-08-24T01:58:41;101407.72;;;19.30
81657;BMP280;71067;51.482;-0.580;2023-08-24T02:01:08;101389.16;;;19.32
81657;BMP280;71067;51.482;-0.580;2023-08-24T02:03:34;101366.50;;;19.24
81657;BMP280;71067;51.482;-0.580;2023-08-24T02:05:59;101355.63;;;19.27
81657;BMP280;71067;51.482;-0.580;2023-08-24T02:08:24;101361.25;;;19.31
81657;BMP280;71067;51.482;-0.580;2023-08-24T02:10:50;101336.03;;;19.23
81657;BMP280;71067;51.482;-0.580;2023-08-24T02:13:15;101339.44;;;19.30
81657;BMP280;71067;51.482;-0.580;2023-08-24T02:15:41;101345.50;;;19.24
81657;BMP280;71067;51.482;-0.580;2023-08-24T02:18:07;101385.91;;;19.30
81657;BMP280;71067;51.482;-0.580;2023-08-24T02:20:36;101382.06;;;19.32
81657;BMP280;71067;51.482;-0.580;2023-08-24T02:23:02;101377.22;;;19.36
81657;BMP280;71067;51.482;-0.580;2023-08-24T02:25:27;101371.16;;;19.35
81657;BMP280;71067;51.482;-0.580;2023-08-24T02:27:53;101368.91;;;19.39
81657;BMP280;71067;51.482;-0.580;2023-08-24T02:30:19;101360.66;;;19.35
81657;BMP280;71067;51.482;-0.580;2023-08-24T02:32:44;101371.56;;;19.26
81657;BMP280;71067;51.482;-0.580;2023-08-24T02:35:09;101369.56;;;19.28
81657;BMP280;71067;51.482;-0.580;2023-08-24T02:37:35;101370.94;;;19.30
81657;BMP280;71067;51.482;-0.580;2023-08-24T02:40:00;101365.13;;;19.28
81657;BMP280;71067;51.482;-0.580;2023-08-24T02:42:26;101370.38;;;19.28
81657;BMP280;71067;51.482;-0.580;2023-08-24T02:44:52;101378.44;;;19.20
81657;BMP280;71067;51.482;-0.580;2023-08-24T02:47:17;101394.63;;;19.24
81657;BMP280;71067;51.482;-0.580;2023-08-24T02:49:42;101400.88;;;19.23
81657;BMP280;71067;51.482;-0.580;2023-08-24T02:52:08;101396.81;;;19.20
81657;BMP280;71067;51.482;-0.580;2023-08-24T02:54:33;101361.25;;;19.11
81657;BMP280;71067;51.482;-0.580;2023-08-24T02:56:59;101348.78;;;19.13
81657;BMP280;71067;51.482;-0.580;2023-08-24T02:59:25;101348.38;;;19.10
81657;BMP280;71067;51.482;-0.580;2023-08-24T03:01:50;101344.13;;;19.02
81657;BMP280;71067;51.482;-0.580;2023-08-24T03:04:15;101338.28;;;19.00
81657;BMP280;71067;51.482;-0.580;2023-08-24T03:06:43;101332.03;;;19.01
81657;BMP280;71067;51.482;-0.580;2023-08-24T03:09:08;101318.09;;;18.94
81657;BMP280;71067;51.482;-0.580;2023-08-24T03:11:34;101322.31;;;18.89
81657;BMP280;71067;51.482;-0.580;2023-08-24T03:13:59;101327.16;;;18.85
81657;BMP280;71067;51.482;-0.580;2023-08-24T03:16:24;101318.91;;;18.88
81657;BMP280;71067;51.482;-0.580;2023-08-24T03:18:50;101301.16;;;18.90
81657;BMP280;71067;51.482;-0.580;2023-08-24T03:21:15;101310.63;;;18.91
81657;BMP280;71067;51.482;-0.580;2023-08-24T03:23:40;101315.69;;;18.93
81657;BMP280;71067;51.482;-0.580;2023-08-24T03:26:05;101305.19;;;18.93
81657;BMP280;71067;51.482;-0.580;2023-08-24T03:28:31;101298.31;;;18.92
81657;BMP280;71067;51.482;-0.580;2023-08-24T03:30:56;101277.75;;;18.82
81657;BMP280;71067;51.482;-0.580;2023-08-24T03:33:22;101281.75;;;18.78
81657;BMP280;71067;51.482;-0.580;2023-08-24T03:35:47;101302.34;;;18.75
81657;BMP280;71067;51.482;-0.580;2023-08-24T03:38:13;101307.19;;;18.71
81657;BMP280;71067;51.482;-0.580;2023-08-24T03:40:39;101327.81;;;18.74
81657;BMP280;71067;51.482;-0.580;2023-08-24T03:43:04;101326.59;;;18.77
81657;BMP280;71067;51.482;-0.580;2023-08-24T03:45:29;101315.69;;;18.80
81657;BMP280;71067;51.482;-0.580;2023-08-24T03:47:55;101282.59;;;18.79
81657;BMP280;71067;51.482;-0.580;2023-08-24T03:50:20;101276.91;;;18.75
81657;BMP280;71067;51.482;-0.580;2023-08-24T03:52:48;101291.03;;;18.68
81657;BMP280;71067;51.482;-0.580;2023-08-24T03:55:13;101328.81;;;18.73
81657;BMP280;71067;51.482;-0.580;2023-08-24T03:57:38;101318.31;;;18.73
81657;BMP280;71067;51.482;-0.580;2023-08-24T04:00:05;101299.31;;;18.71
81657;BMP280;71067;51.482;-0.580;2023-08-24T04:02:33;101291.44;;;18.78
81657;BMP280;71067;51.482;-0.580;2023-08-24T04:04:58;101269.06;;;18.82
81657;BMP280;71067;51.482;-0.580;2023-08-24T04:07:23;101273.69;;;18.80
81657;BMP280;71067;51.482;-0.580;2023-08-24T04:09:48;101295.28;;;18.82
81657;BMP280;71067;51.482;-0.580;2023-08-24T04:12:14;101289.22;;;18.81
81657;BMP280;71067;51.482;-0.580;2023-08-24T04:14:39;101304.75;;;18.89
81657;BMP280;71067;51.482;-0.580;2023-08-24T04:17:04;101311.44;;;18.92
81657;BMP280;71067;51.482;-0.580;2023-08-24T04:19:31;101305.94;;;18.93
81657;BMP280;71067;51.482;-0.580;2023-08-24T04:21:56;101298.06;;;18.93
81657;BMP280;71067;51.482;-0.580;2023-08-24T04:24:22;101311.41;;;18.98
81657;BMP280;71067;51.482;-0.580;2023-08-24T04:26:47;101319.28;;;18.98
81657;BMP280;71067;51.482;-0.580;2023-08-24T04:29:12;101322.31;;;19.02
81657;BMP280;71067;51.482;-0.580;2023-08-24T04:31:38;101301.34;;;18.95
81657;BMP280;71067;51.482;-0.580;2023-08-24T04:34:05;101291.22;;;18.99
81657;BMP280;71067;51.482;-0.580;2023-08-24T04:36:31;101281.94;;;18.96
81657;BMP280;71067;51.482;-0.580;2023-08-24T04:38:56;101307.59;;;18.94
81657;BMP280;71067;51.482;-0.580;2023-08-24T04:41:21;101270.25;;;18.92
81657;BMP280;71067;51.482;-0.580;2023-08-24T04:43:46;101288.59;;;18.99
81657;BMP280;71067;51.482;-0.580;2023-08-24T04:46:12;101295.66;;;18.98
81657;BMP280;71067;51.482;-0.580;2023-08-24T04:48:37;101293.44;;;19.02
81657;BMP280;71067;51.482;-0.580;2023-08-24T04:51:02;101282.13;;;19.01
81657;BMP280;71067;51.482;-0.580;2023-08-24T04:53:28;101265.38;;;19.02
81657;BMP280;71067;51.482;-0.580;2023-08-24T04:55:53;101276.91;;;19.01
81657;BMP280;71067;51.482;-0.580;2023-08-24T04:58:19;101279.13;;;18.91
81657;BMP280;71067;51.482;-0.580;2023-08-24T05:00:44;101278.13;;;18.92
81657;BMP280;71067;51.482;-0.580;2023-08-24T05:03:10;101292.66;;;19.01
81657;BMP280;71067;51.482;-0.580;2023-08-24T05:05:36;101294.84;;;19.04
81657;BMP280;71067;51.482;-0.580;2023-08-24T05:08:03;101292.44;;;19.03
81657;BMP280;71067;51.482;-0.580;2023-08-24T05:10:32;101301.50;;;19.07
81657;BMP280;71067;51.482;-0.580;2023-08-24T05:12:57;101287.16;;;19.09
81657;BMP280;71067;51.482;-0.580;2023-08-24T05:15:23;101267.19;;;19.08
81657;BMP280;71067;51.482;-0.580;2023-08-24T05:17:48;101249.41;;;19.04
81657;BMP280;71067;51.482;-0.580;2023-08-24T05:20:14;101249.81;;;19.07
81657;BMP280;71067;51.482;-0.580;2023-08-24T05:22:39;101250.84;;;19.06
81657;BMP280;71067;51.482;-0.580;2023-08-24T05:25:05;101256.09;;;19.06
81657;BMP280;71067;51.482;-0.580;2023-08-24T05:27:31;101245.38;;;19.08
81657;BMP280;71067;51.482;-0.580;2023-08-24T05:29:56;101230.63;;;19.07
81657;BMP280;71067;51.482;-0.580;2023-08-24T05:32:21;101239.09;;;19.09
81657;BMP280;71067;51.482;-0.580;2023-08-24T05:34:47;101239.91;;;19.09
81657;BMP280;71067;51.482;-0.580;2023-08-24T05:37:12;101244.97;;;19.11
81657;BMP280;71067;51.482;-0.580;2023-08-24T05:39:37;101249.59;;;19.09
81657;BMP280;71067;51.482;-0.580;2023-08-24T05:42:03;101242.53;;;19.09
81657;BMP280;71067;51.482;-0.580;2023-08-24T05:44:29;101249.41;;;19.10
81657;BMP280;71067;51.482;-0.580;2023-08-24T05:46:54;101243.75;;;19.13
81657;BMP280;71067;51.482;-0.580;2023-08-24T05:49:19;101250.81;;;19.13
81657;BMP280;71067;51.482;-0.580;2023-08-24T05:51:45;101249.00;;;19.13
81657;BMP280;71067;51.482;-0.580;2023-08-24T05:54:10;101268.78;;;19.09
81657;BMP280;71067;51.482;-0.580;2023-08-24T05:56:35;101272.81;;;19.12
81657;BMP280;71067;51.482;-0.580;2023-08-24T05:59:01;101259.31;;;19.08
81657;BMP280;71067;51.482;-0.580;2023-08-24T06:01:26;101259.94;;;19.10
81657;BMP280;71067;51.482;-0.580;2023-08-24T06:03:51;101261.94;;;19.08
81657;BMP280;71067;51.482;-0.580;2023-08-24T06:06:17;101247.00;;;19.02
81657;BMP280;71067;51.482;-0.580;2023-08-24T06:08:43;101248.22;;;19.06
81657;BMP280;71067;51.482;-0.580;2023-08-24T06:11:08;101270.41;;;19.04
81657;BMP280;71067;51.482;-0.580;2023-08-24T06:13:34;101274.88;;;19.03
81657;BMP280;71067;51.482;-0.580;2023-08-24T06:15:59;101282.53;;;19.05
81657;BMP280;71067;51.482;-0.580;2023-08-24T06:18:24;101242.38;;;18.98
81657;BMP280;71067;51.482;-0.580;2023-08-24T06:20:50;101237.28;;;19.09
81657;BMP280;71067;51.482;-0.580;2023-08-24T06:23:16;101228.41;;;19.10
81657;BMP280;71067;51.482;-0.580;2023-08-24T06:25:42;101232.84;;;19.10
81657;BMP280;71067;51.482;-0.580;2023-08-24T06:28:07;101230.44;;;19.08
81657;BMP280;71067;51.482;-0.580;2023-08-24T06:30:37;101217.72;;;19.05
81657;BMP280;71067;51.482;-0.580;2023-08-24T06:33:04;101226.16;;;19.14
81657;BMP280;71067;51.482;-0.580;2023-08-24T06:35:29;101238.50;;;19.13
81657;BMP280;71067;51.482;-0.580;2023-08-24T06:37:55;101240.50;;;19.18
81657;BMP280;71067;51.482;-0.580;2023-08-24T06:40:20;101228.19;;;19.18
81657;BMP280;71067;51.482;-0.580;2023-08-24T06:42:46;101250.56;;;19.27
81657;BMP280;71067;51.482;-0.580;2023-08-24T06:45:11;101254.00;;;19.28
81657;BMP280;71067;51.482;-0.580;2023-08-24T06:47:37;101265.72;;;19.32
81657;BMP280;71067;51.482;-0.580;2023-08-24T06:50:03;101267.13;;;19.34
81657;BMP280;71067;51.482;-0.580;2023-08-24T06:52:28;101269.53;;;19.36
81657;BMP280;71067;51.482;-0.580;2023-08-24T06:54:53;101242.44;;;19.35
81657;BMP280;71067;51.482;-0.580;2023-08-24T06:57:21;101230.53;;;19.39
81657;BMP280;71067;51.482;-0.580;2023-08-24T06:59:47;101221.84;;;19.32
81657;BMP280;71067;51.482;-0.580;2023-08-24T07:02:12;101221.47;;;19.29
81657;BMP280;71067;51.482;-0.580;2023-08-24T07:04:38;101208.53;;;19.27
81657;BMP280;71067;51.482;-0.580;2023-08-24T07:07:05;101223.88;;;19.37
81657;BMP280;71067;51.482;-0.580;2023-08-24T07:09:30;101220.19;;;19.44
81657;BMP280;71067;51.482;-0.580;2023-08-24T07:11:56;101214.13;;;19.37
81657;BMP280;71067;51.482;-0.580;2023-08-24T07:14:21;101227.09;;;19.39
81657;BMP280;71067;51.482;-0.580;2023-08-24T07:16:46;101224.28;;;19.34
81657;BMP280;71067;51.482;-0.580;2023-08-24T07:19:12;101230.31;;;19.41
81657;BMP280;71067;51.482;-0.580;2023-08-24T07:21:37;101239.56;;;19.43
81657;BMP280;71067;51.482;-0.580;2023-08-24T07:24:03;101238.41;;;19.39
81657;BMP280;71067;51.482;-0.580;2023-08-24T07:26:28;101220.63;;;19.41
81657;BMP280;71067;51.482;-0.580;2023-08-24T07:28:55;101231.06;;;19.48
81657;BMP280;71067;51.482;-0.580;2023-08-24T07:31:21;101231.28;;;19.46
81657;BMP280;71067;51.482;-0.580;2023-08-24T07:33:46;101223.38;;;19.53
81657;BMP280;71067;51.482;-0.580;2023-08-24T07:36:11;101214.06;;;19.50
81657;BMP280;71067;51.482;-0.580;2023-08-24T07:38:37;101214.69;;;19.52
81657;BMP280;71067;51.482;-0.580;2023-08-24T07:41:02;101198.72;;;19.54
81657;BMP280;71067;51.482;-0.580;2023-08-24T07:43:28;101214.06;;;19.57
81657;BMP280;71067;51.482;-0.580;2023-08-24T07:45:53;101216.47;;;19.58
81657;BMP280;71067;51.482;-0.580;2023-08-24T07:48:19;101199.03;;;19.64
81657;BMP280;71067;51.482;-0.580;2023-08-24T07:50:45;101189.16;;;19.59
81657;BMP280;71067;51.482;-0.580;2023-08-24T07:53:10;101188.13;;;19.67
81657;BMP280;71067;51.482;-0.580;2023-08-24T07:55:35;101180.38;;;19.72
81657;BMP280;71067;51.482;-0.580;2023-08-24T07:58:01;101164.28;;;19.68
81657;BMP280;71067;51.482;-0.580;2023-08-24T08:00:26;101156.56;;;19.73
81657;BMP280;71067;51.482;-0.580;2023-08-24T08:02:51;101127.84;;;19.72
81657;BMP280;71067;51.482;-0.580;2023-08-24T08:05:17;101146.41;;;19.77
81657;BMP280;71067;51.482;-0.580;2023-08-24T08:07:43;101140.31;;;19.76
81657;BMP280;71067;51.482;-0.580;2023-08-24T08:10:09;101132.69;;;19.75
81657;BMP280;71067;51.482;-0.580;2023-08-24T08:12:34;101127.81;;;19.78
81657;BMP280;71067;51.482;-0.580;2023-08-24T08:15:00;101115.66;;;19.77
81657;BMP280;71067;51.482;-0.580;2023-08-24T08:17:26;101122.13;;;19.81
81657;BMP280;71067;51.482;-0.580;2023-08-24T08:19:56;101110.56;;;19.82
81657;BMP280;71067;51.482;-0.580;2023-08-24T08:22:22;101105.91;;;19.84
81657;BMP280;71067;51.482;-0.580;2023-08-24T08:24:48;101116.44;;;19.84
81657;BMP280;71067;51.482;-0.580;2023-08-24T08:27:13;101100.22;;;19.87
81657;BMP280;71067;51.482;-0.580;2023-08-24T08:29:38;101082.25;;;19.84
81657;BMP280;71067;51.482;-0.580;2023-08-24T08:32:04;101091.75;;;19.85
81657;BMP280;71067;51.482;-0.580;2023-08-24T08:34:31;101077.13;;;19.89
81657;BMP280;71067;51.482;-0.580;2023-08-24T08:36:56;101122.88;;;19.88
81657;BMP280;71067;51.482;-0.580;2023-08-24T08:39:22;101110.91;;;19.92
81657;BMP280;71067;51.482;-0.580;2023-08-24T08:41:48;101097.75;;;19.92
81657;BMP280;71067;51.482;-0.580;2023-08-24T08:44:14;101106.59;;;19.98
81657;BMP280;71067;51.482;-0.580;2023-08-24T08:46:43;101106.31;;;19.88
81657;BMP280;71067;51.482;-0.580;2023-08-24T08:49:09;101108.69;;;19.89
81657;BMP280;71067;51.482;-0.580;2023-08-24T08:51:38;101113.53;;;19.92
81657;BMP280;71067;51.482;-0.580;2023-08-24T08:54:04;101136.16;;;19.93
81657;BMP280;71067;51.482;-0.580;2023-08-24T08:56:31;101154.50;;;20.00
81657;BMP280;71067;51.482;-0.580;2023-08-24T08:58:58;101150.88;;;20.01
81657;BMP280;71067;51.482;-0.580;2023-08-24T09:01:24;101154.69;;;20.05
81657;BMP280;71067;51.482;-0.580;2023-08-24T09:03:51;101178.13;;;20.07
81657;BMP280;71067;51.482;-0.580;2023-08-24T09:06:16;101183.72;;;20.17
81657;BMP280;71067;51.482;-0.580;2023-08-24T09:08:42;101170.13;;;20.20
81657;BMP280;71067;51.482;-0.580;2023-08-24T09:11:08;101159.75;;;20.25
81657;BMP280;71067;51.482;-0.580;2023-08-24T09:13:34;101151.22;;;20.29
81657;BMP280;71067;51.482;-0.580;2023-08-24T09:16:07;101149.56;;;20.35
81657;BMP280;71067;51.482;-0.580;2023-08-24T09:18:36;101156.56;;;20.41
81657;BMP280;71067;51.482;-0.580;2023-08-24T09:21:10;101152.28;;;20.46
81657;BMP280;71067;51.482;-0.580;2023-08-24T09:23:35;101135.00;;;20.50
81657;BMP280;71067;51.482;-0.580;2023-08-24T09:26:01;101126.22;;;20.56
81657;BMP280;71067;51.482;-0.580;2023-08-24T09:28:26;101117.94;;;20.59
81657;BMP280;71067;51.482;-0.580;2023-08-24T09:30:54;101120.16;;;20.56
81657;BMP280;71067;51.482;-0.580;2023-08-24T09:33:20;101115.63;;;20.63
81657;BMP280;71067;51.482;-0.580;2023-08-24T09:35:52;101112.56;;;20.66
81657;BMP280;71067;51.482;-0.580;2023-08-24T09:38:19;101124.16;;;20.76
81657;BMP280;71067;51.482;-0.580;2023-08-24T09:40:51;101111.25;;;20.75
81657;BMP280;71067;51.482;-0.580;2023-08-24T09:43:17;101111.41;;;20.80
81657;BMP280;71067;51.482;-0.580;2023-08-24T09:45:55;101111.66;;;20.90
81657;BMP280;71067;51.482;-0.580;2023-08-24T09:48:22;101090.34;;;20.91
81657;BMP280;71067;51.482;-0.580;2023-08-24T09:50:50;101100.13;;;21.02
81657;BMP280;71067;51.482;-0.580;2023-08-24T09:53:20;101101.91;;;21.08
81657;BMP280;71067;51.482;-0.580;2023-08-24T09:55:53;101105.69;;;21.12
81657;BMP280;71067;51.482;-0.580;2023-08-24T09:58:22;101087.09;;;21.07
81657;BMP280;71067;51.482;-0.580;2023-08-24T10:00:48;101107.28;;;21.25
81657;BMP280;71067;51.482;-0.580;2023-08-24T10:03:17;101114.31;;;21.31
81657;BMP280;71067;51.482;-0.580;2023-08-24T10:05:48;101116.25;;;21.35
81657;BMP280;71067;51.482;-0.580;2023-08-24T10:08:17;101106.09;;;21.39
81657;BMP280;71067;51.482;-0.580;2023-08-24T10:10:46;101107.03;;;21.44
81657;BMP280;71067;51.482;-0.580;2023-08-24T10:13:39;101100.03;;;21.50
81657;BMP280;71067;51.482;-0.580;2023-08-24T10:16:07;101115.66;;;21.63
81657;BMP280;71067;51.482;-0.580;2023-08-24T10:18:33;101098.56;;;21.66
81657;BMP280;71067;51.482;-0.580;2023-08-24T10:20:59;101118.44;;;21.80
81657;BMP280;71067;51.482;-0.580;2023-08-24T10:23:27;101123.56;;;21.86
81657;BMP280;71067;51.482;-0.580;2023-08-24T10:25:55;101126.22;;;21.98
81657;BMP280;71067;51.482;-0.580;2023-08-24T10:28:20;101117.59;;;22.02
81657;BMP280;71067;51.482;-0.580;2023-08-24T10:30:48;101113.34;;;22.13
81657;BMP280;71067;51.482;-0.580;2023-08-24T10:33:14;101112.31;;;22.14
81657;BMP280;71067;51.482;-0.580;2023-08-24T10:35:41;101128.47;;;22.29
81657;BMP280;71067;51.482;-0.580;2023-08-24T10:38:07;101116.28;;;22.28
81657;BMP280;71067;51.482;-0.580;2023-08-24T10:40:33;101123.28;;;22.34
81657;BMP280;71067;51.482;-0.580;2023-08-24T10:43:02;101123.97;;;22.41
81657;BMP280;71067;51.482;-0.580;2023-08-24T10:48:24;101103.75;;;22.46
81657;BMP280;71067;51.482;-0.580;2023-08-24T10:53:54;101098.56;;;22.51
81657;BMP280;71067;51.482;-0.580;2023-08-24T10:56:21;101101.88;;;22.58
81657;BMP280;71067;51.482;-0.580;2023-08-24T10:58:47;101106.19;;;22.64
81657;BMP280;71067;51.482;-0.580;2023-08-24T11:01:19;101104.69;;;22.68
81657;BMP280;71067;51.482;-0.580;2023-08-24T11:03:54;101107.94;;;22.70
81657;BMP280;71067;51.482;-0.580;2023-08-24T11:06:21;101115.44;;;22.78
81657;BMP280;71067;51.482;-0.580;2023-08-24T11:08:47;101132.41;;;22.82
81657;BMP280;71067;51.482;-0.580;2023-08-24T11:11:20;101123.78;;;22.87
81657;BMP280;71067;51.482;-0.580;2023-08-24T11:14:14;101108.38;;;22.95
81657;BMP280;71067;51.482;-0.580;2023-08-24T11:16:47;101118.00;;;23.01
81657;BMP280;71067;51.482;-0.580;2023-08-24T11:19:13;101119.09;;;23.05
81657;BMP280;71067;51.482;-0.580;2023-08-24T11:21:40;101107.59;;;23.11
81657;BMP280;71067;51.482;-0.580;2023-08-24T11:24:05;101105.84;;;23.17
81657;BMP280;71067;51.482;-0.580;2023-08-24T11:26:31;101113.88;;;23.22
81657;BMP280;71067;51.482;-0.580;2023-08-24T11:28:56;101101.44;;;23.23
81657;BMP280;71067;51.482;-0.580;2023-08-24T11:31:23;101099.69;;;23.28
81657;BMP280;71067;51.482;-0.580;2023-08-24T11:33:53;101092.53;;;23.29
81657;BMP280;71067;51.482;-0.580;2023-08-24T11:36:20;101086.28;;;23.35
81657;BMP280;71067;51.482;-0.580;2023-08-24T11:38:46;101071.44;;;23.34
81657;BMP280;71067;51.482;-0.580;2023-08-24T11:41:16;101068.81;;;23.34
81657;BMP280;71067;51.482;-0.580;2023-08-24T11:43:43;101060.47;;;23.42
81657;BMP280;71067;51.482;-0.580;2023-08-24T11:46:08;101066.41;;;23.49
81657;BMP280;71067;51.482;-0.580;2023-08-24T11:48:34;101052.00;;;23.56
81657;BMP280;71067;51.482;-0.580;2023-08-24T11:51:02;101052.88;;;23.62
81657;BMP280;71067;51.482;-0.580;2023-08-24T11:53:28;101032.66;;;23.56
81657;BMP280;71067;51.482;-0.580;2023-08-24T11:55:54;101044.50;;;23.70
81657;BMP280;71067;51.482;-0.580;2023-08-24T11:58:19;101055.44;;;23.78
81657;BMP280;71067;51.482;-0.580;2023-08-24T12:00:45;101050.81;;;23.85
81657;BMP280;71067;51.482;-0.580;2023-08-24T12:03:11;101053.53;;;23.90
81657;BMP280;71067;51.482;-0.580;2023-08-24T12:05:37;101050.66;;;23.97
81657;BMP280;71067;51.482;-0.580;2023-08-24T12:08:03;101047.53;;;24.00
81657;BMP280;71067;51.482;-0.580;2023-08-24T12:10:28;101047.03;;;24.03
81657;BMP280;71067;51.482;-0.580;2023-08-24T12:13:06;101049.75;;;24.08
81657;BMP280;71067;51.482;-0.580;2023-08-24T12:15:35;101057.72;;;24.13
81657;BMP280;71067;51.482;-0.580;2023-08-24T12:18:11;101058.22;;;24.10
81657;BMP280;71067;51.482;-0.580;2023-08-24T12:20:37;101055.59;;;24.10
81657;BMP280;71067;51.482;-0.580;2023-08-24T12:23:03;101049.25;;;24.11
81657;BMP280;71067;51.482;-0.580;2023-08-24T12:25:28;101043.47;;;24.14
81657;BMP280;71067;51.482;-0.580;2023-08-24T12:28:13;101028.63;;;24.13
81657;BMP280;71067;51.482;-0.580;2023-08-24T12:31:06;101025.72;;;24.14
81657;BMP280;71067;51.482;-0.580;2023-08-24T12:33:31;101026.75;;;24.08
81657;BMP280;71067;51.482;-0.580;2023-08-24T12:35:57;101032.81;;;24.09
81657;BMP280;71067;51.482;-0.580;2023-08-24T12:38:26;101035.44;;;24.04
81657;BMP280;71067;51.482;-0.580;2023-08-24T12:40:52;101040.44;;;24.05
81657;BMP280;71067;51.482;-0.580;2023-08-24T12:43:18;101026.03;;;23.96
81657;BMP280;71067;51.482;-0.580;2023-08-24T12:45:44;101016.19;;;23.92
81657;BMP280;71067;51.482;-0.580;2023-08-24T12:48:10;101012.25;;;23.94
81657;BMP280;71067;51.482;-0.580;2023-08-24T12:50:36;100994.00;;;23.93
81657;BMP280;71067;51.482;-0.580;2023-08-24T12:53:02;100985.00;;;23.94
81657;BMP280;71067;51.482;-0.580;2023-08-24T12:55:28;100982.63;;;23.92
81657;BMP280;71067;51.482;-0.580;2023-08-24T12:57:54;100978.13;;;23.93
81657;BMP280;71067;51.482;-0.580;2023-08-24T13:00:20;100981.31;;;23.95
81657;BMP280;71067;51.482;-0.580;2023-08-24T13:02:47;100985.63;;;24.01
81657;BMP280;71067;51.482;-0.580;2023-08-24T13:05:13;100988.59;;;24.09
81657;BMP280;71067;51.482;-0.580;2023-08-24T13:07:38;100985.28;;;24.19
81657;BMP280;71067;51.482;-0.580;2023-08-24T13:10:04;100977.94;;;24.26
81657;BMP280;71067;51.482;-0.580;2023-08-24T13:12:30;100975.88;;;24.33
81657;BMP280;71067;51.482;-0.580;2023-08-24T13:14:55;100974.34;;;24.37
81657;BMP280;71067;51.482;-0.580;2023-08-24T13:17:20;100984.13;;;24.36
81657;BMP280;71067;51.482;-0.580;2023-08-24T13:19:46;100998.41;;;24.35
81657;BMP280;71067;51.482;-0.580;2023-08-24T13:22:11;100987.03;;;24.35
81657;BMP280;71067;51.482;-0.580;2023-08-24T13:24:36;100973.75;;;24.30
81657;BMP280;71067;51.482;-0.580;2023-08-24T13:27:05;100966.28;;;24.22
81657;BMP280;71067;51.482;-0.580;2023-08-24T13:29:35;100970.66;;;24.11
81657;BMP280;71067;51.482;-0.580;2023-08-24T13:32:01;100977.31;;;24.14
81657;BMP280;71067;51.482;-0.580;2023-08-24T13:34:26;100962.13;;;24.09
81657;BMP280;71067;51.482;-0.580;2023-08-24T13:36:51;100965.88;;;24.08
81657;BMP280;71067;51.482;-0.580;2023-08-24T13:39:16;100957.16;;;24.13
81657;BMP280;71067;51.482;-0.580;2023-08-24T13:41:42;100953.97;;;24.11
81657;BMP280;71067;51.482;-0.580;2023-08-24T13:44:07;100949.28;;;24.18
81657;BMP280;71067;51.482;-0.580;2023-08-24T13:46:33;100954.06;;;24.21
81657;BMP280;71067;51.482;-0.580;2023-08-24T13:48:58;100936.69;;;24.30